sensor_id;sensor_type;location;lat;lon;timestamp;temperature;humidity
32600;DHT22;19277;51.778;7.912;2023-07-20T00:00:45;19.80;99.90
32600;DHT22;19277;51.778;7.912;2023-07-20T00:03:14;19.80;99.90
32600;DHT22;19277;51.778;7.912;2023-07-20T00:05:44;19.70;99.90
32600;DHT22;19277;51.778;7.912;2023-07-20T00:08:10;19.70;99.90
32600;DHT22;19277;51.778;7.912;2023-07-20T00:10:35;19.70;99.90
32600;DHT22;19277;51.778;7.912;2023-07-20T00:13:01;19.70;99.90
32600;DHT22;19277;51.778;7.912;2023-07-20T00:15:27;19.70;99.90
32600;DHT22;19277;51.778;7.912;2023-07-20T00:17:52;19.70;99.90
32600;DHT22;19277;51.778;7.912;2023-07-20T00:20:18;19.60;99.90
32600;DHT22;19277;51.778;7.912;2023-07-20T00:22:43;19.50;99.90
32600;DHT22;19277;51.778;7.912;2023-07-20T00:25:09;19.50;99.90
32600;DHT22;19277;51.778;7.912;2023-07-20T00:27:37;19.50;99.90
32600;DHT22;19277;51.778;7.912;2023-07-20T00:30:04;19.40;99.90
32600;DHT22;19277;51.778;7.912;2023-07-20T00:32:29;19.40;99.90
32600;DHT22;19277;51.778;7.912;2023-07-20T00:34:55;19.50;99.90
32600;DHT22;19277;51.778;7.912;2023-07-20T00:37:21;19.40;99.90
32600;DHT22;19277;51.778;7.912;2023-07-20T00:39:46;19.50;99.90
32600;DHT22;19277;51.778;7.912;2023-07-20T00:42:12;19.40;99.90
32600;DHT22;19277;51.778;7.912;2023-07-20T00:44:37;19.40;99.90
32600;DHT22;19277;51.778;7.912;2023-07-20T00:47:04;19.50;99.90
32600;DHT22;19277;51.778;7.912;2023-07-20T00:49:29;19.70;99.90
32600;DHT22;19277;51.778;7.912;2023-07-20T00:51:55;20.00;99.90
32600;DHT22;19277;51.778;7.912;2023-07-20T00:54:21;20.30;99.30
32600;DHT22;19277;51.778;7.912;2023-07-20T00:56:47;20.50;98.70
32600;DHT22;19277;51.778;7.912;2023-07-20T00:59:13;20.80;98.10
32600;DHT22;19277;51.778;7.912;2023-07-20T01:01:39;21.00;97.60
32600;DHT22;19277;51.778;7.912;2023-07-20T01:04:05;21.20;97.00
32600;DHT22;19277;51.778;7.912;2023-07-20T01:06:41;21.30;96.70
32600;DHT22;19277;51.778;7.912;2023-07-20T01:09:18;21.40;96.30
32600;DHT22;19277;51.778;7.912;2023-07-20T01:14:23;21.60;95.60
32600;DHT22;19277;51.778;7.912;2023-07-20T01:16:50;21.60;95.30
32600;DHT22;19277;51.778;7.912;2023-07-20T01:19:18;21.70;95.00
32600;DHT22;19277;51.778;7.912;2023-07-20T01:21:57;21.70;94.70
32600;DHT22;19277;51.778;7.912;2023-07-20T01:32:29;21.90;93.90
32600;DHT22;19277;51.778;7.912;2023-07-20T01:34:56;21.90;93.70
32600;DHT22;19277;51.778;7.912;2023-07-20T01:37:24;22.00;93.80
32600;DHT22;19277;51.778;7.912;2023-07-20T01:39:54;22.00;93.70
32600;DHT22;19277;51.778;7.912;2023-07-20T01:42:23;22.00;93.50
32600;DHT22;19277;51.778;7.912;2023-07-20T01:44:53;22.00;93.50
32600;DHT22;19277;51.778;7.912;2023-07-20T01:47:19;22.00;93.40
32600;DHT22;19277;51.778;7.912;2023-07-20T01:49:44;22.00;93.40
32600;DHT22;19277;51.778;7.912;2023-07-20T01:52:10;22.00;93.30
32600;DHT22;19277;51.778;7.912;2023-07-20T01:54:36;22.00;93.30
32600;DHT22;19277;51.778;7.912;2023-07-20T01:57:02;22.00;93.30
32600;DHT22;19277;51.778;7.912;2023-07-20T01:59:28;22.00;93.10
32600;DHT22;19277;51.778;7.912;2023-07-20T02:01:54;22.00;93.00
32600;DHT22;19277;51.778;7.912;2023-07-20T02:04:19;22.10;93.20
32600;DHT22;19277;51.778;7.912;2023-07-20T02:06:45;22.10;92.90
32600;DHT22;19277;51.778;7.912;2023-07-20T02:09:10;22.10;92.90
32600;DHT22;19277;51.778;7.912;2023-07-20T02:11:36;22.10;92.80
32600;DHT22;19277;51.778;7.912;2023-07-20T02:14:02;22.10;92.70
32600;DHT22;19277;51.778;7.912;2023-07-20T02:16:27;22.10;92.80
32600;DHT22;19277;51.778;7.912;2023-07-20T02:18:53;22.10;92.70
32600;DHT22;19277;51.778;7.912;2023-07-20T02:21:18;22.10;92.60
32600;DHT22;19277;51.778;7.912;2023-07-20T02:23:45;22.10;92.60
32600;DHT22;19277;51.778;7.912;2023-07-20T02:26:10;22.20;92.50
32600;DHT22;19277;51.778;7.912;2023-07-20T02:28:36;22.20;92.40
32600;DHT22;19277;51.778;7.912;2023-07-20T02:31:01;22.20;92.30
32600;DHT22;19277;51.778;7.912;2023-07-20T02:33:27;22.20;92.40
32600;DHT22;19277;51.778;7.912;2023-07-20T02:35:52;22.20;92.30
32600;DHT22;19277;51.778;7.912;2023-07-20T02:38:18;22.20;92.10
32600;DHT22;19277;51.778;7.912;2023-07-20T02:40:43;22.20;92.10
32600;DHT22;19277;51.778;7.912;2023-07-20T02:43:09;22.20;92.00
32600;DHT22;19277;51.778;7.912;2023-07-20T02:45:35;22.20;92.00
32600;DHT22;19277;51.778;7.912;2023-07-20T02:48:01;22.20;92.00
32600;DHT22;19277;51.778;7.912;2023-07-20T02:50:28;22.20;91.90
32600;DHT22;19277;51.778;7.912;2023-07-20T02:52:53;22.20;91.90
32600;DHT22;19277;51.778;7.912;2023-07-20T02:55:19;22.20;91.90
32600;DHT22;19277;51.778;7.912;2023-07-20T02:57:45;22.20;91.80
32600;DHT22;19277;51.778;7.912;2023-07-20T03:00:11;22.20;91.70
32600;DHT22;19277;51.778;7.912;2023-07-20T03:02:40;22.20;91.70
32600;DHT22;19277;51.778;7.912;2023-07-20T03:05:06;22.20;91.70
32600;DHT22;19277;51.778;7.912;2023-07-20T03:07:32;22.20;91.70
32600;DHT22;19277;51.778;7.912;2023-07-20T03:09:58;22.20;91.60
32600;DHT22;19277;51.778;7.912;2023-07-20T03:12:24;22.20;91.60
32600;DHT22;19277;51.778;7.912;2023-07-20T03:14:50;22.30;91.60
32600;DHT22;19277;51.778;7.912;2023-07-20T03:17:15;22.30;91.50
32600;DHT22;19277;51.778;7.912;2023-07-20T03:19:41;22.30;91.50
32600;DHT22;19277;51.778;7.912;2023-07-20T03:22:07;22.30;91.50
32600;DHT22;19277;51.778;7.912;2023-07-20T03:24:32;22.30;91.40
32600;DHT22;19277;51.778;7.912;2023-07-20T03:26:58;22.30;91.30
32600;DHT22;19277;51.778;7.912;2023-07-20T03:29:24;22.30;91.20
32600;DHT22;19277;51.778;7.912;2023-07-20T03:31:49;22.40;91.30
32600;DHT22;19277;51.778;7.912;2023-07-20T03:34:15;22.40;91.20
32600;DHT22;19277;51.778;7.912;2023-07-20T03:36:41;22.40;91.10
32600;DHT22;19277;51.778;7.912;2023-07-20T03:39:07;22.40;91.00
32600;DHT22;19277;51.778;7.912;2023-07-20T03:41:32;22.40;90.90
32600;DHT22;19277;51.778;7.912;2023-07-20T03:43:58;22.40;91.10
32600;DHT22;19277;51.778;7.912;2023-07-20T03:46:24;22.40;90.90
32600;DHT22;19277;51.778;7.912;2023-07-20T03:48:50;22.50;90.80
32600;DHT22;19277;51.778;7.912;2023-07-20T03:51:15;22.50;90.50
32600;DHT22;19277;51.778;7.912;2023-07-20T03:53:41;22.50;90.40
32600;DHT22;19277;51.778;7.912;2023-07-20T03:56:07;22.40;90.30
32600;DHT22;19277;51.778;7.912;2023-07-20T03:58:33;22.50;90.20
32600;DHT22;19277;51.778;7.912;2023-07-20T04:00:59;22.50;90.40
32600;DHT22;19277;51.778;7.912;2023-07-20T04:03:24;22.50;90.20
32600;DHT22;19277;51.778;7.912;2023-07-20T04:05:53;22.50;90.30
32600;DHT22;19277;51.778;7.912;2023-07-20T04:08:20;22.50;90.40
32600;DHT22;19277;51.778;7.912;2023-07-20T04:10:45;22.40;90.30
32600;DHT22;19277;51.778;7.912;2023-07-20T04:13:11;22.40;90.00
32600;DHT22;19277;51.778;7.912;2023-07-20T04:15:37;22.50;89.80
32600;DHT22;19277;51.778;7.912;2023-07-20T04:18:02;22.50;90.00
32600;DHT22;19277;51.778;7.912;2023-07-20T04:20:28;22.50;90.10
32600;DHT22;19277;51.778;7.912;2023-07-20T04:22:54;22.50;89.50
32600;DHT22;19277;51.778;7.912;2023-07-20T04:25:19;22.50;89.70
32600;DHT22;19277;51.778;7.912;2023-07-20T04:27:45;22.50;89.40
32600;DHT22;19277;51.778;7.912;2023-07-20T04:30:11;22.50;89.40
32600;DHT22;19277;51.778;7.912;2023-07-20T04:32:38;22.50;89.60
32600;DHT22;19277;51.778;7.912;2023-07-20T04:35:07;22.50;89.20
32600;DHT22;19277;51.778;7.912;2023-07-20T04:37:35;22.50;88.80
32600;DHT22;19277;51.778;7.912;2023-07-20T04:40:01;22.50;88.70
32600;DHT22;19277;51.778;7.912;2023-07-20T04:42:27;22.50;89.20
32600;DHT22;19277;51.778;7.912;2023-07-20T04:44:52;22.50;88.00
32600;DHT22;19277;51.778;7.912;2023-07-20T04:47:18;22.50;88.40
32600;DHT22;19277;51.778;7.912;2023-07-20T04:49:43;22.50;88.00
32600;DHT22;19277;51.778;7.912;2023-07-20T04:52:09;22.50;87.80
32600;DHT22;19277;51.778;7.912;2023-07-20T04:54:35;22.50;87.60
32600;DHT22;19277;51.778;7.912;2023-07-20T04:57:00;22.50;88.10
32600;DHT22;19277;51.778;7.912;2023-07-20T04:59:26;22.50;87.60
32600;DHT22;19277;51.778;7.912;2023-07-20T05:01:52;22.50;88.30
32600;DHT22;19277;51.778;7.912;2023-07-20T05:04:18;22.50;87.60
32600;DHT22;19277;51.778;7.912;2023-07-20T05:06:43;22.50;88.10
32600;DHT22;19277;51.778;7.912;2023-07-20T05:09:09;22.50;87.40
32600;DHT22;19277;51.778;7.912;2023-07-20T05:11:34;22.50;86.60
32600;DHT22;19277;51.778;7.912;2023-07-20T05:14:00;22.50;88.10
32600;DHT22;19277;51.778;7.912;2023-07-20T05:16:26;22.50;88.00
32600;DHT22;19277;51.778;7.912;2023-07-20T05:18:51;22.50;87.30
32600;DHT22;19277;51.778;7.912;2023-07-20T05:21:17;22.50;87.40
32600;DHT22;19277;51.778;7.912;2023-07-20T05:23:42;22.60;87.30
32600;DHT22;19277;51.778;7.912;2023-07-20T05:26:08;22.50;87.10
32600;DHT22;19277;51.778;7.912;2023-07-20T05:28:34;22.50;86.90
32600;DHT22;19277;51.778;7.912;2023-07-20T05:31:02;22.50;87.10
32600;DHT22;19277;51.778;7.912;2023-07-20T05:33:28;22.50;86.70
32600;DHT22;19277;51.778;7.912;2023-07-20T05:35:54;22.50;86.60
32600;DHT22;19277;51.778;7.912;2023-07-20T05:38:19;22.60;87.40
32600;DHT22;19277;51.778;7.912;2023-07-20T05:40:45;22.50;87.00
32600;DHT22;19277;51.778;7.912;2023-07-20T05:43:12;22.60;86.90
32600;DHT22;19277;51.778;7.912;2023-07-20T05:45:41;22.50;86.80
32600;DHT22;19277;51.778;7.912;2023-07-20T05:48:07;22.50;86.10
32600;DHT22;19277;51.778;7.912;2023-07-20T05:50:35;22.60;87.00
32600;DHT22;19277;51.778;7.912;2023-07-20T05:53:00;22.60;86.90
32600;DHT22;19277;51.778;7.912;2023-07-20T05:55:26;22.60;86.40
32600;DHT22;19277;51.778;7.912;2023-07-20T05:57:51;22.60;86.00
32600;DHT22;19277;51.778;7.912;2023-07-20T06:00:17;22.70;85.90
32600;DHT22;19277;51.778;7.912;2023-07-20T06:02:44;22.90;85.30
32600;DHT22;19277;51.778;7.912;2023-07-20T06:05:10;23.00;85.10
32600;DHT22;19277;51.778;7.912;2023-07-20T06:07:39;23.10;85.40
32600;DHT22;19277;51.778;7.912;2023-07-20T06:10:05;23.20;83.60
32600;DHT22;19277;51.778;7.912;2023-07-20T06:12:31;23.40;82.80
32600;DHT22;19277;51.778;7.912;2023-07-20T06:15:01;23.50;82.90
32600;DHT22;19277;51.778;7.912;2023-07-20T06:17:26;23.50;82.70
32600;DHT22;19277;51.778;7.912;2023-07-20T06:19:52;23.60;82.30
32600;DHT22;19277;51.778;7.912;2023-07-20T06:22:18;23.70;82.40
32600;DHT22;19277;51.778;7.912;2023-07-20T06:24:43;23.70;80.20
32600;DHT22;19277;51.778;7.912;2023-07-20T06:27:09;23.70;81.30
32600;DHT22;19277;51.778;7.912;2023-07-20T06:29:34;23.80;81.00
32600;DHT22;19277;51.778;7.912;2023-07-20T06:32:00;23.80;80.80
32600;DHT22;19277;51.778;7.912;2023-07-20T06:34:25;23.90;78.20
32600;DHT22;19277;51.778;7.912;2023-07-20T06:36:51;23.90;79.90
32600;DHT22;19277;51.778;7.912;2023-07-20T06:39:16;23.90;78.00
32600;DHT22;19277;51.778;7.912;2023-07-20T06:41:42;23.90;78.50
32600;DHT22;19277;51.778;7.912;2023-07-20T06:44:08;23.90;78.40
32600;DHT22;19277;51.778;7.912;2023-07-20T06:46:33;23.90;77.60
32600;DHT22;19277;51.778;7.912;2023-07-20T06:48:59;24.00;78.80
32600;DHT22;19277;51.778;7.912;2023-07-20T06:51:24;24.10;78.50
32600;DHT22;19277;51.778;7.912;2023-07-20T06:53:50;24.10;78.60
32600;DHT22;19277;51.778;7.912;2023-07-20T06:56:15;24.20;78.00
32600;DHT22;19277;51.778;7.912;2023-07-20T06:58:41;24.20;78.10
32600;DHT22;19277;51.778;7.912;2023-07-20T07:01:08;24.30;77.90
32600;DHT22;19277;51.778;7.912;2023-07-20T07:03:33;24.30;77.10
32600;DHT22;19277;51.778;7.912;2023-07-20T07:05:59;24.30;77.00
32600;DHT22;19277;51.778;7.912;2023-07-20T07:08:25;24.30;76.70
32600;DHT22;19277;51.778;7.912;2023-07-20T07:10:52;24.40;76.80
32600;DHT22;19277;51.778;7.912;2023-07-20T07:13:18;24.40;76.90
32600;DHT22;19277;51.778;7.912;2023-07-20T07:15:44;24.40;76.70
32600;DHT22;19277;51.778;7.912;2023-07-20T07:18:10;24.40;75.00
32600;DHT22;19277;51.778;7.912;2023-07-20T07:20:35;24.50;76.10
32600;DHT22;19277;51.778;7.912;2023-07-20T07:23:01;24.50;74.60
32600;DHT22;19277;51.778;7.912;2023-07-20T07:25:27;24.50;74.40
32600;DHT22;19277;51.778;7.912;2023-07-20T07:27:54;24.40;74.30
32600;DHT22;19277;51.778;7.912;2023-07-20T07:30:21;24.40;71.80
32600;DHT22;19277;51.778;7.912;2023-07-20T07:32:47;24.20;70.90
32600;DHT22;19277;51.778;7.912;2023-07-20T07:35:12;24.20;72.90
32600;DHT22;19277;51.778;7.912;2023-07-20T07:37:38;24.10;73.00
32600;DHT22;19277;51.778;7.912;2023-07-20T07:40:04;24.20;72.50
32600;DHT22;19277;51.778;7.912;2023-07-20T07:42:31;24.10;71.60
32600;DHT22;19277;51.778;7.912;2023-07-20T07:44:57;24.20;71.80
32600;DHT22;19277;51.778;7.912;2023-07-20T07:47:22;24.30;72.80
32600;DHT22;19277;51.778;7.912;2023-07-20T07:49:48;24.20;72.70
32600;DHT22;19277;51.778;7.912;2023-07-20T07:52:15;24.20;72.30
32600;DHT22;19277;51.778;7.912;2023-07-20T07:54:40;24.00;72.00
32600;DHT22;19277;51.778;7.912;2023-07-20T07:57:06;23.90;72.70
32600;DHT22;19277;51.778;7.912;2023-07-20T07:59:33;23.60;73.10
32600;DHT22;19277;51.778;7.912;2023-07-20T08:02:04;23.40;73.80
32600;DHT22;19277;51.778;7.912;2023-07-20T08:04:29;23.30;72.80
32600;DHT22;19277;51.778;7.912;2023-07-20T08:06:55;23.30;70.90
32600;DHT22;19277;51.778;7.912;2023-07-20T08:09:20;23.10;71.00
32600;DHT22;19277;51.778;7.912;2023-07-20T08:11:46;23.00;71.10
32600;DHT22;19277;51.778;7.912;2023-07-20T08:14:13;22.90;72.30
32600;DHT22;19277;51.778;7.912;2023-07-20T08:16:39;22.80;72.20
32600;DHT22;19277;51.778;7.912;2023-07-20T08:19:04;22.80;71.80
32600;DHT22;19277;51.778;7.912;2023-07-20T08:21:30;22.80;72.00
32600;DHT22;19277;51.778;7.912;2023-07-20T08:23:55;22.70;71.30
32600;DHT22;19277;51.778;7.912;2023-07-20T08:26:21;22.80;71.60
32600;DHT22;19277;51.778;7.912;2023-07-20T08:28:48;22.90;70.90
32600;DHT22;19277;51.778;7.912;2023-07-20T08:31:14;22.50;70.90
32600;DHT22;19277;51.778;7.912;2023-07-20T08:33:39;21.90;70.60
32600;DHT22;19277;51.778;7.912;2023-07-20T08:36:05;21.70;74.90
32600;DHT22;19277;51.778;7.912;2023-07-20T08:38:31;21.60;74.40
32600;DHT22;19277;51.778;7.912;2023-07-20T08:40:57;21.60;74.00
32600;DHT22;19277;51.778;7.912;2023-07-20T08:43:25;21.60;74.80
32600;DHT22;19277;51.778;7.912;2023-07-20T08:45:52;21.60;75.10
32600;DHT22;19277;51.778;7.912;2023-07-20T08:48:20;21.60;75.50
32600;DHT22;19277;51.778;7.912;2023-07-20T08:50:49;21.70;75.40
32600;DHT22;19277;51.778;7.912;2023-07-20T08:53:16;21.80;74.70
32600;DHT22;19277;51.778;7.912;2023-07-20T08:55:44;21.70;75.40
32600;DHT22;19277;51.778;7.912;2023-07-20T08:58:12;21.70;73.30
32600;DHT22;19277;51.778;7.912;2023-07-20T09:00:38;21.80;72.60
32600;DHT22;19277;51.778;7.912;2023-07-20T09:03:03;21.80;71.90
32600;DHT22;19277;51.778;7.912;2023-07-20T09:05:30;21.70;72.10
32600;DHT22;19277;51.778;7.912;2023-07-20T09:07:55;21.70;68.70
32600;DHT22;19277;51.778;7.912;2023-07-20T09:10:22;21.50;72.30
32600;DHT22;19277;51.778;7.912;2023-07-20T09:12:48;21.50;73.30
32600;DHT22;19277;51.778;7.912;2023-07-20T09:15:14;21.60;74.50
32600;DHT22;19277;51.778;7.912;2023-07-20T09:17:46;21.80;74.30
32600;DHT22;19277;51.778;7.912;2023-07-20T09:20:12;21.90;74.00
32600;DHT22;19277;51.778;7.912;2023-07-20T09:22:38;21.90;74.10
32600;DHT22;19277;51.778;7.912;2023-07-20T09:25:13;22.00;74.30
32600;DHT22;19277;51.778;7.912;2023-07-20T09:27:41;21.90;73.20
32600;DHT22;19277;51.778;7.912;2023-07-20T09:30:07;21.90;72.50
32600;DHT22;19277;51.778;7.912;2023-07-20T09:32:54;21.80;72.20
32600;DHT22;19277;51.778;7.912;2023-07-20T09:35:21;21.70;72.80
32600;DHT22;19277;51.778;7.912;2023-07-20T09:38:00;21.60;73.50
32600;DHT22;19277;51.778;7.912;2023-07-20T09:40:26;21.60;73.00
32600;DHT22;19277;51.778;7.912;2023-07-20T09:42:53;21.60;71.80
32600;DHT22;19277;51.778;7.912;2023-07-20T09:45:31;21.60;70.10
32600;DHT22;19277;51.778;7.912;2023-07-20T09:48:04;21.60;71.50
32600;DHT22;19277;51.778;7.912;2023-07-20T09:50:30;21.60;71.70
32600;DHT22;19277;51.778;7.912;2023-07-20T09:52:56;21.70;72.70
32600;DHT22;19277;51.778;7.912;2023-07-20T09:55:22;21.70;71.10
32600;DHT22;19277;51.778;7.912;2023-07-20T09:57:49;21.70;71.90
32600;DHT22;19277;51.778;7.912;2023-07-20T10:00:16;21.60;71.90
32600;DHT22;19277;51.778;7.912;2023-07-20T10:02:43;21.50;74.00
32600;DHT22;19277;51.778;7.912;2023-07-20T10:05:14;21.60;72.20
32600;DHT22;19277;51.778;7.912;2023-07-20T10:07:44;21.70;72.00
32600;DHT22;19277;51.778;7.912;2023-07-20T10:10:11;21.90;70.60
32600;DHT22;19277;51.778;7.912;2023-07-20T10:12:39;22.10;68.20
32600;DHT22;19277;51.778;7.912;2023-07-20T10:15:10;22.10;66.30
32600;DHT22;19277;51.778;7.912;2023-07-20T10:17:40;22.10;66.00
32600;DHT22;19277;51.778;7.912;2023-07-20T10:20:10;22.00;65.60
32600;DHT22;19277;51.778;7.912;2023-07-20T10:22:38;21.90;65.40
32600;DHT22;19277;51.778;7.912;2023-07-20T10:25:04;21.90;68.00
32600;DHT22;19277;51.778;7.912;2023-07-20T10:27:32;21.90;67.80
32600;DHT22;19277;51.778;7.912;2023-07-20T10:29:58;22.00;67.30
32600;DHT22;19277;51.778;7.912;2023-07-20T10:32:24;22.00;69.80
32600;DHT22;19277;51.778;7.912;2023-07-20T10:34:51;21.90;69.00
32600;DHT22;19277;51.778;7.912;2023-07-20T10:37:50;21.90;68.00
32600;DHT22;19277;51.778;7.912;2023-07-20T10:40:29;22.00;68.50
32600;DHT22;19277;51.778;7.912;2023-07-20T10:43:04;22.00;68.50
32600;DHT22;19277;51.778;7.912;2023-07-20T10:45:39;22.10;67.10
32600;DHT22;19277;51.778;7.912;2023-07-20T10:48:13;22.20;66.50
32600;DHT22;19277;51.778;7.912;2023-07-20T10:50:40;22.40;66.60
32600;DHT22;19277;51.778;7.912;2023-07-20T10:53:14;22.40;65.40
32600;DHT22;19277;51.778;7.912;2023-07-20T10:55:41;22.50;67.20
32600;DHT22;19277;51.778;7.912;2023-07-20T10:58:11;22.60;67.70
32600;DHT22;19277;51.778;7.912;2023-07-20T11:00:59;22.70;67.10
32600;DHT22;19277;51.778;7.912;2023-07-20T11:03:33;22.80;67.00
32600;DHT22;19277;51.778;7.912;2023-07-20T11:05:59;22.80;65.80
32600;DHT22;19277;51.778;7.912;2023-07-20T11:08:41;22.80;65.80
32600;DHT22;19277;51.778;7.912;2023-07-20T11:13:59;22.90;65.70
32600;DHT22;19277;51.778;7.912;2023-07-20T11:16:45;22.90;63.60
32600;DHT22;19277;51.778;7.912;2023-07-20T11:19:20;23.00;62.40
32600;DHT22;19277;51.778;7.912;2023-07-20T11:21:49;23.10;60.40
32600;DHT22;19277;51.778;7.912;2023-07-20T11:24:15;23.10;61.00
32600;DHT22;19277;51.778;7.912;2023-07-20T11:29:07;23.20;62.90
32600;DHT22;19277;51.778;7.912;2023-07-20T11:31:38;23.10;63.30
32600;DHT22;19277;51.778;7.912;2023-07-20T11:34:04;23.10;63.60
32600;DHT22;19277;51.778;7.912;2023-07-20T11:36:29;23.20;63.10
32600;DHT22;19277;51.778;7.912;2023-07-20T11:38:55;23.10;63.00
32600;DHT22;19277;51.778;7.912;2023-07-20T11:41:20;23.00;63.10
32600;DHT22;19277;51.778;7.912;2023-07-20T11:43:47;23.10;64.30
32600;DHT22;19277;51.778;7.912;2023-07-20T11:46:13;23.10;64.30
32600;DHT22;19277;51.778;7.912;2023-07-20T11:48:38;23.30;64.40
32600;DHT22;19277;51.778;7.912;2023-07-20T11:51:05;23.30;61.50
32600;DHT22;19277;51.778;7.912;2023-07-20T11:53:31;23.10;63.30
32600;DHT22;19277;51.778;7.912;2023-07-20T11:55:59;23.10;63.20
32600;DHT22;19277;51.778;7.912;2023-07-20T11:58:24;23.10;63.20
32600;DHT22;19277;51.778;7.912;2023-07-20T12:00:54;23.20;63.30
32600;DHT22;19277;51.778;7.912;2023-07-20T12:03:20;23.30;61.90
32600;DHT22;19277;51.778;7.912;2023-07-20T12:05:45;23.30;59.80
32600;DHT22;19277;51.778;7.912;2023-07-20T12:08:11;23.20;62.00
32600;DHT22;19277;51.778;7.912;2023-07-20T12:10:39;23.20;62.20
32600;DHT22;19277;51.778;7.912;2023-07-20T12:13:10;23.30;62.40
32600;DHT22;19277;51.778;7.912;2023-07-20T12:15:37;23.30;63.50
32600;DHT22;19277;51.778;7.912;2023-07-20T12:18:03;23.30;61.20
32600;DHT22;19277;51.778;7.912;2023-07-20T12:23:13;23.60;62.50
32600;DHT22;19277;51.778;7.912;2023-07-20T12:25:40;23.60;60.20
32600;DHT22;19277;51.778;7.912;2023-07-20T12:28:10;23.70;60.60
32600;DHT22;19277;51.778;7.912;2023-07-20T12:30:37;23.80;59.90
32600;DHT22;19277;51.778;7.912;2023-07-20T12:33:03;23.80;59.60
32600;DHT22;19277;51.778;7.912;2023-07-20T12:35:33;23.90;60.40
32600;DHT22;19277;51.778;7.912;2023-07-20T12:37:59;23.90;60.60
32600;DHT22;19277;51.778;7.912;2023-07-20T12:40:25;23.90;60.10
32600;DHT22;19277;51.778;7.912;2023-07-20T12:42:51;23.90;61.70
32600;DHT22;19277;51.778;7.912;2023-07-20T12:45:17;23.80;59.50
32600;DHT22;19277;51.778;7.912;2023-07-20T12:47:43;23.70;61.20
32600;DHT22;19277;51.778;7.912;2023-07-20T12:50:09;23.70;61.70
32600;DHT22;19277;51.778;7.912;2023-07-20T12:52:39;23.70;61.80
32600;DHT22;19277;51.778;7.912;2023-07-20T12:55:06;23.70;61.90
32600;DHT22;19277;51.778;7.912;2023-07-20T12:57:34;23.70;60.10
32600;DHT22;19277;51.778;7.912;2023-07-20T13:00:00;23.80;61.00
32600;DHT22;19277;51.778;7.912;2023-07-20T13:02:27;23.90;60.80
32600;DHT22;19277;51.778;7.912;2023-07-20T13:04:52;23.90;60.20
32600;DHT22;19277;51.778;7.912;2023-07-20T13:07:32;24.10;58.40
32600;DHT22;19277;51.778;7.912;2023-07-20T13:09:59;24.10;57.00
32600;DHT22;19277;51.778;7.912;2023-07-20T13:12:29;24.00;59.00
32600;DHT22;19277;51.778;7.912;2023-07-20T13:14:55;23.90;59.90
32600;DHT22;19277;51.778;7.912;2023-07-20T13:17:24;23.90;57.50
32600;DHT22;19277;51.778;7.912;2023-07-20T13:19:50;23.90;60.00
32600;DHT22;19277;51.778;7.912;2023-07-20T13:22:16;23.80;57.70
32600;DHT22;19277;51.778;7.912;2023-07-20T13:24:44;23.70;57.90
32600;DHT22;19277;51.778;7.912;2023-07-20T13:27:09;23.60;58.80
32600;DHT22;19277;51.778;7.912;2023-07-20T13:29:35;23.60;59.10
32600;DHT22;19277;51.778;7.912;2023-07-20T13:32:01;23.60;59.10
32600;DHT22;19277;51.778;7.912;2023-07-20T13:34:28;23.70;57.30
32600;DHT22;19277;51.778;7.912;2023-07-20T13:36:53;23.70;57.10
32600;DHT22;19277;51.778;7.912;2023-07-20T13:39:19;23.70;57.80
32600;DHT22;19277;51.778;7.912;2023-07-20T13:41:45;23.80;58.00
32600;DHT22;19277;51.778;7.912;2023-07-20T13:44:10;23.80;58.60
32600;DHT22;19277;51.778;7.912;2023-07-20T13:46:36;23.90;54.90
32600;DHT22;19277;51.778;7.912;2023-07-20T13:49:02;24.00;58.30
32600;DHT22;19277;51.778;7.912;2023-07-20T13:51:28;24.10;56.80
32600;DHT22;19277;51.778;7.912;2023-07-20T13:53:53;24.10;56.90
32600;DHT22;19277;51.778;7.912;2023-07-20T13:56:19;24.10;56.80
32600;DHT22;19277;51.778;7.912;2023-07-20T13:58:44;24.20;57.40
32600;DHT22;19277;51.778;7.912;2023-07-20T14:01:10;24.20;57.00
32600;DHT22;19277;51.778;7.912;2023-07-20T14:03:35;24.20;58.00
32600;DHT22;19277;51.778;7.912;2023-07-20T14:06:02;24.30;57.20
32600;DHT22;19277;51.778;7.912;2023-07-20T14:08:28;24.40;56.30
32600;DHT22;19277;51.778;7.912;2023-07-20T14:10:55;24.30;56.80
32600;DHT22;19277;51.778;7.912;2023-07-20T14:13:20;24.30;57.30
32600;DHT22;19277;51.778;7.912;2023-07-20T14:15:46;24.30;57.00
32600;DHT22;19277;51.778;7.912;2023-07-20T14:18:12;24.30;56.50
32600;DHT22;19277;51.778;7.912;2023-07-20T14:20:37;24.30;56.60
32600;DHT22;19277;51.778;7.912;2023-07-20T14:23:03;24.20;56.40
32600;DHT22;19277;51.778;7.912;2023-07-20T14:25:28;24.10;55.80
32600;DHT22;19277;51.778;7.912;2023-07-20T14:27:54;24.10;57.30
32600;DHT22;19277;51.778;7.912;2023-07-20T14:30:20;24.10;56.70
32600;DHT22;19277;51.778;7.912;2023-07-20T14:32:45;24.10;55.30
32600;DHT22;19277;51.778;7.912;2023-07-20T14:35:11;24.20;54.20
32600;DHT22;19277;51.778;7.912;2023-07-20T14:37:36;24.20;54.10
32600;DHT22;19277;51.778;7.912;2023-07-20T14:40:02;24.20;55.50
32600;DHT22;19277;51.778;7.912;2023-07-20T14:42:30;24.20;54.80
32600;DHT22;19277;51.778;7.912;2023-07-20T14:44:58;24.20;55.30
32600;DHT22;19277;51.778;7.912;2023-07-20T14:47:23;24.30;54.20
32600;DHT22;19277;51.778;7.912;2023-07-20T14:49:50;24.30;53.20
32600;DHT22;19277;51.778;7.912;2023-07-20T14:52:15;24.30;52.70
32600;DHT22;19277;51.778;7.912;2023-07-20T14:54:42;24.20;54.00
32600;DHT22;19277;51.778;7.912;2023-07-20T14:57:08;24.20;54.10
32600;DHT22;19277;51.778;7.912;2023-07-20T14:59:39;24.20;53.80
32600;DHT22;19277;51.778;7.912;2023-07-20T15:02:07;24.10;53.10
32600;DHT22;19277;51.778;7.912;2023-07-20T15:04:33;24.00;53.30
32600;DHT22;19277;51.778;7.912;2023-07-20T15:06:58;23.90;53.20
32600;DHT22;19277;51.778;7.912;2023-07-20T15:09:24;23.80;53.90
32600;DHT22;19277;51.778;7.912;2023-07-20T15:11:49;23.80;53.70
32600;DHT22;19277;51.778;7.912;2023-07-20T15:14:15;23.80;55.90
32600;DHT22;19277;51.778;7.912;2023-07-20T15:16:41;23.90;54.60
32600;DHT22;19277;51.778;7.912;2023-07-20T15:19:08;23.90;54.80
32600;DHT22;19277;51.778;7.912;2023-07-20T15:21:34;23.90;55.10
32600;DHT22;19277;51.778;7.912;2023-07-20T15:24:00;23.80;54.10
32600;DHT22;19277;51.778;7.912;2023-07-20T15:26:25;23.70;54.70
32600;DHT22;19277;51.778;7.912;2023-07-20T15:28:51;23.70;55.10
32600;DHT22;19277;51.778;7.912;2023-07-20T15:31:17;23.80;56.00
32600;DHT22;19277;51.778;7.912;2023-07-20T15:33:43;23.70;55.50
32600;DHT22;19277;51.778;7.912;2023-07-20T15:36:08;23.60;56.40
32600;DHT22;19277;51.778;7.912;2023-07-20T15:38:34;23.60;57.20
32600;DHT22;19277;51.778;7.912;2023-07-20T15:40:59;23.60;56.50
32600;DHT22;19277;51.778;7.912;2023-07-20T15:43:26;23.60;56.50
32600;DHT22;19277;51.778;7.912;2023-07-20T15:48:43;23.50;55.60